createdAt,value
2023-03-07T00:02:34.335Z,33.63
2023-03-07T00:06:06.889Z,31.80
2023-03-07T00:09:34.760Z,28.23
2023-03-07T00:12:56.942Z,30.80
2023-03-07T00:16:22.844Z,31.43
2023-03-07T00:19:44.917Z,33.83
2023-03-07T00:23:08.300Z,33.87
2023-03-07T00:26:39.455Z,28.70
2023-03-07T00:30:04.157Z,30.90
2023-03-07T00:33:28.525Z,30.93
2023-03-07T00:36:50.355Z,33.67
2023-03-07T00:40:13.602Z,35.03
2023-03-07T00:43:38.350Z,33.67
2023-03-07T00:47:03.396Z,37.13
2023-03-07T00:50:26.543Z,37.50
2023-03-07T00:53:51.001Z,35.57
2023-03-07T00:57:14.901Z,38.60
2023-03-07T01:00:39.039Z,38.43
2023-03-07T01:04:00.898Z,38.90
2023-03-07T01:07:22.792Z,34.77
2023-03-07T01:10:45.808Z,37.43
2023-03-07T01:14:11.049Z,37.63
2023-03-07T01:17:34.303Z,31.50
2023-03-07T01:20:58.196Z,32.40
2023-03-07T01:24:22.240Z,32.90
2023-03-07T01:27:45.476Z,27.47
2023-03-07T01:31:11.042Z,28.30
2023-03-07T01:34:38.887Z,31.13
2023-03-07T01:38:00.807Z,32.37
2023-03-07T01:41:32.156Z,29.83
2023-03-07T01:45:06.781Z,24.60
2023-03-07T01:48:41.162Z,28.73
2023-03-07T01:52:05.386Z,29.87
2023-03-07T01:55:34.146Z,28.60
2023-03-07T01:59:06.803Z,27.63
2023-03-07T02:02:29.805Z,30.37
2023-03-07T02:05:59.725Z,28.10
2023-03-07T02:09:23.899Z,27.60
2023-03-07T02:12:50.380Z,26.90
2023-03-07T02:16:13.405Z,27.13
2023-03-07T02:20:11.881Z,22.83
2023-03-07T02:24:10.076Z,23.47
2023-03-07T02:27:37.103Z,24.07
2023-03-07T02:31:06.619Z,26.07
2023-03-07T02:34:33.269Z,24.13
2023-03-07T02:38:05.933Z,26.17
2023-03-07T02:41:35.104Z,25.20
2023-03-07T02:45:10.216Z,24.50
2023-03-07T02:48:34.578Z,24.87
2023-03-07T02:52:00.826Z,23.90
2023-03-07T02:55:27.374Z,23.70
2023-03-07T02:58:56.128Z,22.83
2023-03-07T03:02:21.538Z,21.17
2023-03-07T03:05:43.412Z,25.60
2023-03-07T03:09:06.365Z,21.50
2023-03-07T03:12:47.239Z,23.30
2023-03-07T03:16:09.594Z,31.37
2023-03-07T03:19:31.517Z,25.40
2023-03-07T03:22:56.632Z,25.33
2023-03-07T03:26:18.800Z,23.90
2023-03-07T03:29:41.856Z,24.60
2023-03-07T03:33:06.103Z,24.83
2023-03-07T03:36:29.810Z,26.97
2023-03-07T03:40:00.111Z,21.90
2023-03-07T03:43:23.093Z,24.20
2023-03-07T03:46:48.585Z,23.87
2023-03-07T03:50:14.762Z,24.93
2023-03-07T03:53:44.620Z,22.47
2023-03-07T03:57:17.713Z,23.30
2023-03-07T04:00:47.748Z,25.23
2023-03-07T04:04:12.559Z,20.97
2023-03-07T04:07:37.607Z,22.73
2023-03-07T04:11:01.634Z,23.60
2023-03-07T04:14:23.878Z,25.23
2023-03-07T04:17:47.586Z,20.63
2023-03-07T04:21:15.659Z,27.30
2023-03-07T04:24:37.925Z,21.97
2023-03-07T04:28:00.029Z,26.23
2023-03-07T04:31:25.443Z,19.17
2023-03-07T04:34:55.473Z,23.97
2023-03-07T04:38:18.340Z,20.83
2023-03-07T04:41:52.332Z,23.33
2023-03-07T04:45:18.487Z,25.20
2023-03-07T04:48:49.330Z,24.37
2023-03-07T04:52:14.328Z,22.00
2023-03-07T04:55:36.356Z,22.43
2023-03-07T04:59:00.963Z,20.30
2023-03-07T05:02:23.005Z,20.20
2023-03-07T05:05:46.557Z,22.77
2023-03-07T05:09:08.627Z,23.87
2023-03-07T05:12:30.706Z,26.87
2023-03-07T05:15:57.793Z,20.37
2023-03-07T05:19:20.394Z,28.00
2023-03-07T05:22:47.555Z,22.97
2023-03-07T05:26:09.675Z,23.67
2023-03-07T05:29:33.266Z,24.57
2023-03-07T05:32:56.162Z,20.63
2023-03-07T05:36:19.154Z,20.77
2023-03-07T05:39:45.368Z,20.13
2023-03-07T05:43:07.776Z,22.20
2023-03-07T05:46:36.245Z,23.63
2023-03-07T05:50:01.665Z,22.57
2023-03-07T05:53:34.448Z,20.77
2023-03-07T05:57:02.488Z,22.40
2023-03-07T06:00:25.470Z,19.70
2023-03-07T06:03:54.720Z,19.27
2023-03-07T06:07:18.838Z,19.97
2023-03-07T06:10:42.980Z,21.13
2023-03-07T06:14:06.241Z,21.60
2023-03-07T06:17:28.301Z,19.70
2023-03-07T06:21:03.762Z,22.83
2023-03-07T06:24:35.528Z,21.93
2023-03-07T06:28:00.928Z,20.60
2023-03-07T06:31:29.913Z,23.53
2023-03-07T06:34:53.385Z,22.87
2023-03-07T06:38:20.598Z,21.17
2023-03-07T06:41:50.816Z,20.97
2023-03-07T06:45:13.686Z,25.30
2023-03-07T06:48:36.992Z,26.07
2023-03-07T06:52:03.495Z,26.67
2023-03-07T06:55:26.706Z,21.43
2023-03-07T06:58:52.684Z,24.17
2023-03-07T07:02:15.373Z,21.40
2023-03-07T07:05:37.366Z,21.63
2023-03-07T07:09:00.089Z,17.93
2023-03-07T07:12:28.414Z,19.10
2023-03-07T07:15:53.549Z,16.50
2023-03-07T07:19:16.121Z,20.40
2023-03-07T07:22:41.289Z,23.20
2023-03-07T07:26:04.453Z,23.13
2023-03-07T07:29:27.686Z,23.67
2023-03-07T07:32:50.576Z,16.77
2023-03-07T07:36:13.231Z,17.73
2023-03-07T07:39:36.240Z,20.67
2023-03-07T07:43:00.149Z,17.63
2023-03-07T07:46:32.879Z,18.77
2023-03-07T07:49:54.816Z,16.40
2023-03-07T07:53:20.255Z,19.00
2023-03-07T07:56:43.697Z,20.47
2023-03-07T08:00:08.092Z,23.50
2023-03-07T08:03:40.145Z,23.67
2023-03-07T08:07:02.036Z,18.13
2023-03-07T08:10:25.925Z,19.83
2023-03-07T08:13:53.352Z,15.43
2023-03-07T08:17:19.241Z,27.13
2023-03-07T08:20:42.036Z,18.20
2023-03-07T08:24:06.424Z,16.07
2023-03-07T08:27:35.116Z,17.60
2023-03-07T08:30:59.367Z,22.40
2023-03-07T08:34:23.283Z,19.07
2023-03-07T08:37:45.569Z,16.50
2023-03-07T08:41:09.886Z,15.17
2023-03-07T08:44:33.010Z,20.10
2023-03-07T08:47:56.543Z,21.57
2023-03-07T08:51:19.532Z,18.00
2023-03-07T08:54:41.423Z,18.83
2023-03-07T08:58:05.327Z,19.90
2023-03-07T09:01:30.367Z,19.83
2023-03-07T09:04:55.317Z,20.53
2023-03-07T09:08:17.153Z,21.23
2023-03-07T09:11:39.058Z,16.57
2023-03-07T09:15:16.064Z,19.67
2023-03-07T09:18:38.001Z,24.73
2023-03-07T09:22:08.063Z,22.57
2023-03-07T09:25:31.143Z,17.50
2023-03-07T09:28:52.975Z,19.80
2023-03-07T09:32:15.064Z,31.03
2023-03-07T09:35:39.167Z,17.37
2023-03-07T09:39:00.978Z,19.17
2023-03-07T09:42:45.957Z,21.07
2023-03-07T09:46:48.249Z,16.70
2023-03-07T09:51:11.523Z,20.37
2023-03-07T09:54:46.621Z,16.37
2023-03-07T09:58:18.355Z,17.67
2023-03-07T10:01:45.942Z,21.87
2023-03-07T10:05:18.347Z,19.57
2023-03-07T10:08:40.632Z,22.40
2023-03-07T10:12:54.053Z,20.30
2023-03-07T10:16:55.199Z,17.57
2023-03-07T10:20:44.862Z,14.17
2023-03-07T10:24:23.942Z,21.30
2023-03-07T10:27:52.224Z,28.33
2023-03-07T10:31:25.548Z,19.57
2023-03-07T10:34:59.138Z,21.87
2023-03-07T10:39:15.745Z,19.07
2023-03-07T10:42:40.849Z,18.60
2023-03-07T10:46:25.848Z,17.80
2023-03-07T10:50:12.987Z,21.43
2023-03-07T10:53:41.098Z,16.47
2023-03-07T10:57:16.757Z,20.77
2023-03-07T11:00:45.270Z,19.33
2023-03-07T11:04:22.012Z,22.40
2023-03-07T11:07:53.312Z,18.80
2023-03-07T11:11:26.677Z,18.27
2023-03-07T11:14:58.885Z,19.43
2023-03-07T11:18:31.853Z,18.87
2023-03-07T11:22:01.240Z,18.20
2023-03-07T11:25:36.532Z,16.13
2023-03-07T11:29:12.997Z,14.30
2023-03-07T11:33:17.958Z,14.20
2023-03-07T11:36:44.086Z,13.03
2023-03-07T11:40:40.180Z,13.83
2023-03-07T11:44:34.710Z,12.47
2023-03-07T11:48:26.075Z,15.70
2023-03-07T11:52:31.702Z,15.67
2023-03-07T11:56:25.879Z,14.27
2023-03-07T11:59:57.283Z,18.23
2023-03-07T12:04:23.897Z,17.83
2023-03-07T12:08:15.977Z,20.13
2023-03-07T12:12:03.765Z,17.43
2023-03-07T12:15:40.743Z,19.17
2023-03-07T12:19:49.154Z,19.90
2023-03-07T12:23:26.317Z,23.47
2023-03-07T12:27:01.513Z,18.43
2023-03-07T12:30:44.182Z,22.30
2023-03-07T12:34:11.067Z,21.90
2023-03-07T12:37:53.394Z,18.80
2023-03-07T12:41:36.973Z,18.30
2023-03-07T12:45:12.689Z,17.83
2023-03-07T12:48:51.883Z,22.23
2023-03-07T12:52:43.513Z,19.80
2023-03-07T12:56:15.518Z,22.27
2023-03-07T12:59:45.138Z,21.10
2023-03-07T13:03:19.361Z,19.47
2023-03-07T13:06:50.644Z,18.67
2023-03-07T13:10:20.712Z,17.40
2023-03-07T13:13:43.208Z,16.73
2023-03-07T13:17:10.676Z,18.47
2023-03-07T13:20:39.424Z,15.23
2023-03-07T13:24:44.740Z,15.63
2023-03-07T13:28:36.695Z,19.17
2023-03-07T13:31:58.474Z,20.13
2023-03-07T13:35:33.788Z,19.97
2023-03-07T13:38:55.692Z,18.20
2023-03-07T13:42:49.341Z,15.27
2023-03-07T13:46:42.166Z,21.17
2023-03-07T13:50:36.061Z,272.63
2023-03-07T13:54:06.962Z,1159.53
2023-03-07T13:57:39.372Z,1069.37
2023-03-07T14:01:16.992Z,1763.47
2023-03-07T14:04:55.339Z,1396.73
2023-03-07T14:08:25.462Z,1382.27
2023-03-07T14:12:18.073Z,1439.93
2023-03-07T14:16:01.378Z,1772.63
2023-03-07T14:19:41.296Z,1737.90
2023-03-07T14:23:46.966Z,1999.90
2023-03-07T14:27:16.249Z,1669.10
2023-03-07T14:30:59.786Z,1999.90
2023-03-07T14:34:21.536Z,1904.63
2023-03-07T14:37:44.784Z,1999.90
2023-03-07T14:41:29.555Z,1999.90
2023-03-07T14:45:16.103Z,1739.30
2023-03-07T14:49:28.116Z,1999.90
2023-03-07T14:53:02.529Z,1999.90
2023-03-07T14:56:30.271Z,1999.90
2023-03-07T15:00:20.285Z,1999.90
2023-03-07T15:03:53.857Z,22.50
2023-03-07T15:07:22.099Z,18.40
2023-03-07T15:10:49.195Z,14.90
2023-03-07T15:14:48.257Z,17.33
2023-03-07T15:18:33.604Z,16.23
2023-03-07T15:22:02.718Z,32.50
2023-03-07T15:25:26.179Z,15.93
2023-03-07T15:28:49.964Z,19.20
2023-03-07T15:32:39.433Z,14.67
2023-03-07T15:36:12.938Z,18.57
2023-03-07T15:39:35.866Z,13.97
2023-03-07T15:43:21.767Z,17.40
2023-03-07T15:46:58.178Z,14.93
2023-03-07T15:50:26.335Z,14.73
2023-03-07T15:54:22.741Z,16.00
2023-03-07T15:58:14.260Z,17.07
2023-03-07T16:01:37.195Z,13.83
2023-03-07T16:05:22.816Z,16.77
2023-03-07T16:08:48.058Z,17.53
2023-03-07T16:12:14.609Z,19.40
2023-03-07T16:15:37.488Z,17.90
2023-03-07T16:18:59.375Z,18.30
2023-03-07T16:22:22.663Z,16.03
2023-03-07T16:25:44.711Z,21.87
2023-03-07T16:29:08.783Z,17.67
2023-03-07T16:32:37.557Z,19.07
2023-03-07T16:36:01.418Z,17.47
2023-03-07T16:39:25.365Z,18.33
2023-03-07T16:42:51.256Z,14.33
2023-03-07T16:46:18.891Z,15.03
2023-03-07T16:49:41.029Z,17.33
2023-03-07T16:53:10.121Z,15.27
2023-03-07T16:56:41.856Z,17.67
2023-03-07T17:00:18.698Z,16.63
2023-03-07T17:03:42.670Z,17.73
2023-03-07T17:07:08.732Z,13.83
2023-03-07T17:10:30.794Z,17.17
2023-03-07T17:13:58.532Z,18.23
2023-03-07T17:17:30.664Z,12.67
2023-03-07T17:20:52.641Z,20.73
2023-03-07T17:24:24.204Z,15.00
2023-03-07T17:27:57.731Z,15.77
2023-03-07T17:31:19.648Z,14.53
2023-03-07T17:34:47.863Z,12.97
2023-03-07T17:38:09.698Z,12.93
2023-03-07T17:41:31.485Z,15.02
2023-03-07T17:44:53.288Z,17.60
2023-03-07T17:48:16.003Z,14.77
2023-03-07T17:51:37.822Z,18.73
2023-03-07T17:55:00.308Z,15.20
2023-03-07T17:58:22.096Z,15.10
2023-03-07T18:01:44.003Z,19.03
2023-03-07T18:05:07.350Z,15.43
2023-03-07T18:08:29.219Z,16.97
2023-03-07T18:11:51.201Z,18.53
2023-03-07T18:15:16.268Z,17.13
2023-03-07T18:18:50.604Z,17.80
2023-03-07T18:22:20.773Z,17.27
2023-03-07T18:25:42.585Z,16.73
2023-03-07T18:29:04.913Z,22.07
2023-03-07T18:32:29.219Z,19.13
2023-03-07T18:36:01.207Z,18.30
2023-03-07T18:39:24.026Z,20.20
2023-03-07T18:42:53.089Z,17.00
2023-03-07T18:46:18.553Z,15.37
2023-03-07T18:49:40.570Z,16.93
2023-03-07T18:53:02.875Z,22.00
2023-03-07T18:56:27.275Z,24.10
2023-03-07T18:59:50.100Z,23.10
2023-03-07T19:03:12.036Z,21.00
2023-03-07T19:06:42.437Z,18.67
2023-03-07T19:10:09.443Z,22.80
2023-03-07T19:13:34.093Z,17.57
2023-03-07T19:17:03.210Z,14.43
2023-03-07T19:20:27.702Z,22.40
2023-03-07T19:23:51.401Z,19.60
2023-03-07T19:27:15.946Z,16.80
2023-03-07T19:30:44.815Z,11.03
2023-03-07T19:34:08.523Z,12.27
2023-03-07T19:37:30.428Z,11.33
2023-03-07T19:40:52.336Z,12.00
2023-03-07T19:44:21.807Z,12.87
2023-03-07T19:47:45.648Z,18.20
2023-03-07T19:51:19.948Z,12.60
2023-03-07T19:54:42.796Z,12.63
2023-03-07T19:58:09.893Z,15.57
2023-03-07T20:01:32.726Z,11.23
2023-03-07T20:05:01.878Z,19.10
2023-03-07T20:08:33.717Z,17.67
2023-03-07T20:11:56.089Z,15.53
2023-03-07T20:15:27.074Z,17.60
2023-03-07T20:18:51.760Z,15.00
2023-03-07T20:22:14.593Z,12.50
2023-03-07T20:25:36.586Z,15.80
2023-03-07T20:28:59.543Z,13.83
2023-03-07T20:32:21.544Z,15.63
2023-03-07T20:35:44.636Z,9.67
2023-03-07T20:39:14.296Z,16.27
2023-03-07T20:42:36.147Z,11.30
2023-03-07T20:46:13.248Z,14.97
2023-03-07T20:49:37.311Z,13.77
2023-03-07T20:52:59.200Z,18.10
2023-03-07T20:56:23.246Z,24.43
2023-03-07T20:59:45.137Z,19.33
2023-03-07T21:03:13.359Z,16.90
2023-03-07T21:06:58.964Z,13.30
2023-03-07T21:10:27.370Z,14.87
2023-03-07T21:13:55.234Z,15.87
2023-03-07T21:17:18.267Z,12.73
2023-03-07T21:20:41.074Z,15.83
2023-03-07T21:24:05.705Z,15.20
2023-03-07T21:27:28.112Z,13.93
2023-03-07T21:30:49.923Z,13.83
2023-03-07T21:34:14.021Z,15.97
2023-03-07T21:37:37.418Z,13.60
2023-03-07T21:41:00.721Z,16.40
2023-03-07T21:44:22.598Z,17.17
2023-03-07T21:47:45.419Z,14.17
2023-03-07T21:51:15.746Z,13.13
2023-03-07T21:54:43.447Z,16.73
2023-03-07T21:58:08.209Z,15.67
2023-03-07T22:01:36.234Z,15.80
2023-03-07T22:04:58.088Z,17.33
2023-03-07T22:08:21.988Z,15.83
2023-03-07T22:11:43.909Z,15.43
2023-03-07T22:15:06.776Z,14.93
2023-03-07T22:18:29.312Z,13.37
2023-03-07T22:21:51.115Z,16.40
2023-03-07T22:25:13.159Z,17.07
2023-03-07T22:28:35.647Z,13.63
2023-03-07T22:31:58.503Z,13.93
2023-03-07T22:35:20.451Z,11.63
2023-03-07T22:38:58.412Z,13.27
2023-03-07T22:42:21.628Z,14.77
2023-03-07T22:45:51.793Z,15.43
2023-03-07T22:49:14.649Z,11.60
2023-03-07T22:52:53.535Z,10.80
2023-03-07T22:56:23.434Z,13.97
2023-03-07T22:59:51.039Z,10.17
2023-03-07T23:03:25.029Z,12.30
2023-03-07T23:06:46.878Z,12.70
2023-03-07T23:10:10.030Z,11.83
2023-03-07T23:13:34.049Z,15.07
2023-03-07T23:17:15.083Z,10.27
2023-03-07T23:20:38.747Z,12.30
2023-03-07T23:24:03.257Z,10.17
2023-03-07T23:27:33.334Z,12.70
2023-03-07T23:31:04.573Z,12.70
2023-03-07T23:34:28.418Z,12.97
2023-03-07T23:37:56.450Z,11.57
2023-03-07T23:41:18.287Z,12.80
2023-03-07T23:44:40.391Z,12.37
2023-03-07T23:48:14.321Z,15.13
2023-03-07T23:51:52.215Z,11.10
2023-03-07T23:55:15.986Z,10.73
2023-03-07T23:58:44.017Z,13.00
